Yokosuka — JCOY — position and weather

sailwx.info

Track history (hours):
 
Tides and Currents Weather Stations Pressure Air Temp Water Temp Dewpoint Dewpoint Depression Visibility Wind Speed Wind Dir Waves Ship Positions

Oceanographic research ship Yokosuka (Japan)

Detailed information on ship capabilities available from University of Delaware's Ocean Information Center.

Last reported at 2017-Jul-21 02:29 UTC. Time now 2017-Jul-21 02:37 UTC.
Position N 35°19' E 139°40'.

Length 105.2 m; beam 16 m.

Type: Other ship. MMSI: 431460000.

Date/timePositionNaut miles runAvg speedWind from/ knotsBaromVisibWave heightAir tempDewpointWater temp
2017-Jul-21 02:29N 35°19' E 139°40'0 0.0
2017-Jul-21 01:59N 35°19' E 139°40'0 0.0
2017-Jul-21 01:29N 35°19' E 139°40'0 0.0
2017-Jul-21 00:59N 35°19' E 139°40'0 0.0
2017-Jul-21 00:29N 35°19' E 139°40'0 0.0
2017-Jul-20 23:59N 35°19' E 139°40'0 0.0
2017-Jul-20 23:30N 35°19' E 139°40'1 1.0
2017-Jul-20 23:00N 35°19' E 139°40'0 0.1
2017-Jul-20 22:30N 35°19' E 139°40'2 3.5
2017-Jul-20 22:00N 35°19' E 139°42'4 8.9
2017-Jul-20 21:30N 35°16' E 139°46'5 9.6
2017-Jul-20 21:00N 35°11' E 139°47'611.4
2017-Jul-20 20:30N 35°05' E 139°46'5 9.4
2017-Jul-20 20:00N 35°01' E 139°48'0 0.5
2017-Jul-20 19:30N 35°01' E 139°48'0 0.2
2017-Jul-20 19:00N 35°01' E 139°48'0 0.1
2017-Jul-20 18:30N 35°01' E 139°48'0 0.8
2017-Jul-20 18:00N 35°01' E 139°48'0 0.4
2017-Jul-20 17:30N 35°01' E 139°48'0 0.5
2017-Jul-20 17:00N 35°01' E 139°48'0 0.4
2017-Jul-20 16:30N 35°01' E 139°48'0 0.3
2017-Jul-20 16:00N 35°00' E 139°48'0 0.0
2017-Jul-20 15:27N 35°01' E 139°48'1 1.1
2017-Jul-20 15:00N 35°00' E 139°48'0 0.5
2017-Jul-20 14:00N 35°00' E 139°48'0 0.4
2017-Jul-20 13:30N 35°01' E 139°48'0 0.4
2017-Jul-20 13:00N 35°01' E 139°48'0 0.3
2017-Jul-20 12:30N 35°01' E 139°48'0 0.2
2017-Jul-20 11:58N 35°01' E 139°48'0 0.1
2017-Jul-20 11:30N 35°01' E 139°48'0 0.2
2017-Jul-20 11:00N 35°01' E 139°48'0 0.3
2017-Jul-20 10:29N 35°01' E 139°48'0 0.1
2017-Jul-20 10:00N 35°01' E 139°48'0 0.2
2017-Jul-20 09:30N 35°01' E 139°49'0 0.1
2017-Jul-20 09:00N 35°01' E 139°49'0 0.1
2017-Jul-20 08:30N 35°01' E 139°49'0 0.3
2017-Jul-20 08:00N 35°01' E 139°49'0 0.2
2017-Jul-20 07:30N 35°01' E 139°49'1 1.7
2017-Jul-20 07:00N 35°01' E 139°48'5 9.3
2017-Jul-20 06:30N 35°01' E 139°42'816.4
2017-Jul-20 06:00N 35°01' E 139°32'18 6.2
2017-Jul-20 03:10N 35°00' E 139°10'0 0.1
2017-Jul-19 23:13N 34°60' E 139°10'0 0.0
2017-Jul-19 22:59N 34°60' E 139°10'0 0.7
2017-Jul-19 22:19N 35°00' E 139°10'0 0.2
2017-Jul-19 21:31N 35°00' E 139°09'0 0.2
2017-Jul-19 21:28N 35°00' E 139°09'0 0.1
2017-Jul-19 21:00N 35°00' E 139°09'0 0.1
2017-Jul-19 20:28N 35°00' E 139°09'0 0.0
2017-Jul-19 19:55N 35°00' E 139°09'1 1.3
2017-Jul-19 19:30N 35°00' E 139°10'2 2.8
2017-Jul-19 18:46N 35°01' E 139°13'0 0.1
2017-Jul-19 17:24N 35°01' E 139°12'0 0.1
2017-Jul-19 16:56N 35°01' E 139°12'0 0.2
2017-Jul-19 16:29N 35°01' E 139°12'0 0.1
2017-Jul-19 15:48N 35°01' E 139°13'0 0.1
2017-Jul-19 15:24N 35°01' E 139°13'0 0.1
2017-Jul-19 14:58N 35°01' E 139°13'1 0.3
2017-Jul-19 12:07N 35°02' E 139°12'0 0.1
2017-Jul-19 11:39N 35°02' E 139°12'0 0.2
2017-Jul-19 11:14N 35°02' E 139°12'0 0.3
2017-Jul-19 10:55N 35°02' E 139°12'2 2.5
2017-Jul-19 09:57N 35°04' E 139°12'715.8
2017-Jul-19 09:30N 35°11' E 139°13'811.2
2017-Jul-19 08:46N 35°03' E 139°17'0 0.3
2017-Jul-19 07:40N 35°04' E 139°16'0 0.2
2017-Jul-19 07:26N 35°04' E 139°16'0 0.1
2017-Jul-19 06:51N 35°03' E 139°16'0 0.1
2017-Jul-19 06:02N 35°03' E 139°16'0 0.3
2017-Jul-19 05:51N 35°04' E 139°16'0 0.0
2017-Jul-19 05:00N 35°04' E 139°16'0 0.0
2017-Jul-19 03:39N 35°03' E 139°16'0 0.3
2017-Jul-19 03:29N 35°03' E 139°16'0 0.1
2017-Jul-19 00:55N 35°04' E 139°16'0 0.1
2017-Jul-18 22:33N 35°04' E 139°16'0 0.3
2017-Jul-18 22:22N 35°03' E 139°16'412.1
2017-Jul-18 22:00N 35°01' E 139°12'2 0.1
2017-Jul-18 05:42N 35°00' E 139°09'0 0.2
2017-Jul-18 05:00N 35°00' E 139°10'2210.2
2017-Jul-18 02:48N 35°05' E 139°36'516.6
2017-Jul-18 02:30N 35°06' E 139°42'815.2
2017-Jul-18 02:00N 35°13' E 139°46'612.8
2017-Jul-18 01:31N 35°19' E 139°43'713.8
2017-Jul-18 01:01N 35°26' E 139°45'714.8
2017-Jul-18 00:30N 35°31' E 139°51'5 9.4
2017-Jul-18 00:00N 35°35' E 139°47'4 6.2
2017-Jul-17 23:22N 35°39' E 139°47'0 0.0
2017-Jul-17 22:58N 35°39' E 139°47'0 0.0
2017-Jul-17 22:19N 35°39' E 139°47'0 0.0
2017-Jul-17 21:58N 35°39' E 139°47'0 0.0
2017-Jul-17 21:28N 35°39' E 139°47'0 0.0
2017-Jul-17 20:52N 35°39' E 139°47'0 0.0
2017-Jul-17 20:28N 35°39' E 139°47'0 0.0
2017-Jul-17 19:52N 35°39' E 139°47'0 0.0
2017-Jul-17 19:25N 35°39' E 139°47'0 0.0
2017-Jul-17 18:58N 35°39' E 139°47'0 0.0
2017-Jul-17 18:28N 35°39' E 139°47'0 0.0
2017-Jul-17 17:58N 35°39' E 139°47'0 0.0
2017-Jul-17 17:28N 35°39' E 139°47'0 0.0
2017-Jul-17 16:58N 35°39' E 139°47'0 0.0
2017-Jul-17 16:28N 35°39' E 139°47'0 0.0
2017-Jul-17 15:58N 35°39' E 139°47'0 0.0
2017-Jul-17 15:28N 35°39' E 139°47'0 0.0
2017-Jul-17 14:58N 35°39' E 139°47'0 0.0
2017-Jul-17 14:28N 35°39' E 139°47'0 0.0
2017-Jul-17 13:58N 35°39' E 139°47'0 0.0
2017-Jul-17 13:28N 35°39' E 139°47'0 0.0
2017-Jul-17 12:58N 35°39' E 139°47'0 0.0
2017-Jul-17 12:28N 35°39' E 139°47'0 0.0
2017-Jul-17 11:58N 35°39' E 139°47'0 0.0
2017-Jul-17 11:28N 35°39' E 139°47'0 0.0
2017-Jul-17 10:58N 35°39' E 139°47'0 0.0
2017-Jul-17 10:28N 35°39' E 139°47'0 0.0
2017-Jul-17 09:58N 35°39' E 139°47'0 0.0
2017-Jul-17 09:28N 35°39' E 139°47'0 0.0
2017-Jul-17 08:58N 35°39' E 139°47'0 0.0
2017-Jul-17 08:28N 35°39' E 139°47'0 0.0
2017-Jul-17 07:58N 35°39' E 139°47'0 0.0
2017-Jul-17 07:28N 35°39' E 139°47'0 0.0
2017-Jul-17 06:58N 35°39' E 139°47'0 0.0
2017-Jul-17 06:28N 35°39' E 139°47'0 0.0
2017-Jul-17 05:58N 35°39' E 139°47'0 0.0
2017-Jul-17 05:28N 35°39' E 139°47'0 0.0
2017-Jul-17 04:58N 35°39' E 139°47'0 0.0
2017-Jul-17 04:28N 35°39' E 139°47'0 0.0
2017-Jul-17 03:58N 35°39' E 139°47'0 0.0
2017-Jul-17 03:25N 35°39' E 139°47'0 0.0
2017-Jul-17 02:58N 35°39' E 139°47'0 0.0
2017-Jul-17 02:28N 35°39' E 139°47'0 0.0
2017-Jul-17 01:58N 35°39' E 139°47'0 0.0
2017-Jul-17 01:28N 35°39' E 139°47'0 0.0
2017-Jul-17 00:58N 35°39' E 139°47'0 0.0
2017-Jul-17 00:28N 35°39' E 139°47'0 0.0
2017-Jul-16 23:55N 35°39' E 139°47'0 0.0
2017-Jul-16 23:28N 35°39' E 139°47'0 0.0
2017-Jul-16 22:55N 35°39' E 139°47'0 0.0
2017-Jul-16 22:28N 35°39' E 139°47'0 0.3
2017-Jul-16 21:55N 35°39' E 139°46'0 0.3
2017-Jul-16 21:28N 35°39' E 139°47'0 0.0
2017-Jul-16 20:58N 35°39' E 139°47'0 0.0
2017-Jul-16 20:28N 35°39' E 139°47'0 0.0
2017-Jul-16 19:58N 35°39' E 139°47'0 0.0
2017-Jul-16 19:28N 35°39' E 139°47'0 0.0
2017-Jul-16 18:58N 35°39' E 139°47'0 0.0
2017-Jul-16 18:28N 35°39' E 139°47'0 0.0
2017-Jul-16 17:58N 35°39' E 139°47'0 0.0
2017-Jul-16 17:28N 35°39' E 139°47'0 0.0
2017-Jul-16 16:55N 35°39' E 139°47'0 0.0
2017-Jul-16 16:28N 35°39' E 139°47'0 0.0
2017-Jul-16 15:55N 35°39' E 139°47'0 0.0
2017-Jul-16 15:28N 35°39' E 139°47'0 0.0
2017-Jul-16 14:58N 35°39' E 139°47'0 0.0
2017-Jul-16 14:28N 35°39' E 139°47'0 0.0
2017-Jul-16 13:58N 35°39' E 139°47'0 0.0
2017-Jul-16 13:25N 35°39' E 139°47'0 0.0
2017-Jul-16 12:58N 35°39' E 139°47'0 0.0
2017-Jul-16 12:28N 35°39' E 139°47'0 0.0
2017-Jul-16 11:58N 35°39' E 139°47'0 0.0
2017-Jul-16 11:28N 35°39' E 139°47'0 0.0
2017-Jul-16 10:58N 35°39' E 139°47'0 0.0
2017-Jul-16 10:28N 35°39' E 139°47'0 0.0
2017-Jul-16 09:58N 35°39' E 139°47'0 0.0
2017-Jul-16 09:28N 35°39' E 139°47'0 0.0
2017-Jul-16 08:58N 35°39' E 139°47'0 0.0
2017-Jul-16 08:28N 35°39' E 139°47'0 0.0
2017-Jul-16 07:58N 35°39' E 139°47'0 0.0
2017-Jul-16 07:25N 35°39' E 139°47'0 0.0
2017-Jul-16 06:58N 35°39' E 139°47'0 0.0
2017-Jul-16 06:28N 35°39' E 139°47'0 0.0
2017-Jul-16 05:52N 35°39' E 139°47'0 0.0
2017-Jul-16 05:25N 35°39' E 139°47'0 0.0
2017-Jul-16 04:58N 35°39' E 139°47'0 0.0
2017-Jul-16 04:28N 35°39' E 139°47'0 0.0
2017-Jul-16 03:55N 35°39' E 139°47'0 0.0
2017-Jul-16 03:28N 35°39' E 139°47'0 0.0
2017-Jul-16 02:58N 35°39' E 139°47'0 0.0
2017-Jul-16 02:28N 35°39' E 139°47'0 0.0
2017-Jul-16 01:58N 35°39' E 139°47'0 0.0
2017-Jul-16 01:28N 35°39' E 139°47'0 0.0
2017-Jul-16 00:58N 35°39' E 139°47'0 0.0
2017-Jul-16 00:28N 35°39' E 139°47'0 0.0
2017-Jul-15 23:58N 35°39' E 139°47'0 0.0
2017-Jul-15 23:28N 35°39' E 139°47'0 0.0
2017-Jul-15 22:58N 35°39' E 139°47'0 0.0
2017-Jul-15 22:28N 35°39' E 139°47'0 0.0
2017-Jul-15 21:58N 35°39' E 139°47'0 0.0
2017-Jul-15 21:28N 35°39' E 139°47'0 0.0
2017-Jul-15 20:58N 35°39' E 139°47'0 0.0
2017-Jul-15 20:28N 35°39' E 139°47'0 0.0
2017-Jul-15 19:58N 35°39' E 139°47'0 0.0
2017-Jul-15 19:25N 35°39' E 139°47'0 0.0
2017-Jul-15 18:58N 35°39' E 139°47'0 0.0
2017-Jul-15 18:28N 35°39' E 139°47'0 0.0
2017-Jul-15 17:58N 35°39' E 139°47'0 0.0
2017-Jul-15 17:28N 35°39' E 139°47'0 0.0
2017-Jul-15 16:58N 35°39' E 139°47'0 0.0
2017-Jul-15 16:28N 35°39' E 139°47'0 0.0
2017-Jul-15 15:58N 35°39' E 139°47'0 0.0
2017-Jul-15 15:22N 35°39' E 139°47'0 0.0
2017-Jul-15 14:58N 35°39' E 139°47'0 0.0
2017-Jul-15 13:58N 35°39' E 139°47'0 0.0
2017-Jul-15 13:28N 35°39' E 139°47'0 0.0
2017-Jul-15 12:37N 35°39' E 139°47'0 0.0
2017-Jul-15 12:28N 35°39' E 139°47'0 0.0
2017-Jul-15 11:58N 35°39' E 139°47'0 0.0
2017-Jul-15 11:25N 35°39' E 139°47'0 0.0
2017-Jul-15 10:58N 35°39' E 139°47'0 0.0
2017-Jul-15 10:28N 35°39' E 139°47'0 0.0
2017-Jul-15 09:58N 35°39' E 139°47'0 0.0
2017-Jul-15 09:28N 35°39' E 139°47'0 0.0
2017-Jul-15 08:58N 35°39' E 139°47'0 0.0
2017-Jul-15 08:28N 35°39' E 139°47'0 0.0
2017-Jul-15 07:58N 35°39' E 139°47'0 0.0
2017-Jul-15 02:55N 35°39' E 139°47'0 0.0
2017-Jul-15 02:28N 35°39' E 139°47'0 0.1
2017-Jul-15 02:00N 35°39' E 139°47'2 3.3
2017-Jul-15 01:30N 35°37' E 139°46'510.4
2017-Jul-15 01:00N 35°33' E 139°50'2 4.9
2017-Jul-15 00:30N 35°32' E 139°53'0 0.4
2017-Jul-15 00:00N 35°32' E 139°53'1 2.9
2017-Jul-14 23:29N 35°31' E 139°52'5 9.4
2017-Jul-14 23:00N 35°27' E 139°49'611.5
2017-Jul-14 22:30N 35°22' E 139°45'611.1
2017-Jul-14 22:00N 35°17' E 139°46'612.9
2017-Jul-14 21:30N 35°10' E 139°46'714.0
2017-Jul-14 21:00N 35°03' E 139°45'612.9
2017-Jul-14 20:30N 34°57' E 139°43'  
Track history (hours):
 
Tides and Currents Weather Stations Pressure Air Temp Water Temp Dewpoint Dewpoint Depression Visibility Wind Speed Wind Dir Waves Ship Positions

Oceanographic research ship Yokosuka (Japan)

Detailed information on ship capabilities available from University of Delaware's Ocean Information Center.

Last reported at 2017-Jul-21 02:29 UTC. Time now 2017-Jul-21 02:37 UTC.
Position N 35°19' E 139°40'.

Length 105.2 m; beam 16 m.

Type: Other ship. MMSI: 431460000.

Date/timePositionNaut miles runAvg speedWind from/ knotsBaromVisibWave heightAir tempDewpointWater temp
2017-Jul-21 02:29N 35°19' E 139°40'0 0.0
2017-Jul-21 01:59N 35°19' E 139°40'0 0.0
2017-Jul-21 01:29N 35°19' E 139°40'0 0.0
2017-Jul-21 00:59N 35°19' E 139°40'0 0.0
2017-Jul-21 00:29N 35°19' E 139°40'0 0.0
2017-Jul-20 23:59N 35°19' E 139°40'0 0.0
2017-Jul-20 23:30N 35°19' E 139°40'1 1.0
2017-Jul-20 23:00N 35°19' E 139°40'0 0.1
2017-Jul-20 22:30N 35°19' E 139°40'2 3.5
2017-Jul-20 22:00N 35°19' E 139°42'4 8.9
2017-Jul-20 21:30N 35°16' E 139°46'5 9.6
2017-Jul-20 21:00N 35°11' E 139°47'611.4
2017-Jul-20 20:30N 35°05' E 139°46'5 9.4
2017-Jul-20 20:00N 35°01' E 139°48'0 0.5
2017-Jul-20 19:30N 35°01' E 139°48'0 0.2
2017-Jul-20 19:00N 35°01' E 139°48'0 0.1
2017-Jul-20 18:30N 35°01' E 139°48'0 0.8
2017-Jul-20 18:00N 35°01' E 139°48'0 0.4
2017-Jul-20 17:30N 35°01' E 139°48'0 0.5
2017-Jul-20 17:00N 35°01' E 139°48'0 0.4
2017-Jul-20 16:30N 35°01' E 139°48'0 0.3
2017-Jul-20 16:00N 35°00' E 139°48'0 0.0
2017-Jul-20 15:27N 35°01' E 139°48'1 1.1
2017-Jul-20 15:00N 35°00' E 139°48'0 0.5
2017-Jul-20 14:00N 35°00' E 139°48'0 0.4
2017-Jul-20 13:30N 35°01' E 139°48'0 0.4
2017-Jul-20 13:00N 35°01' E 139°48'0 0.3
2017-Jul-20 12:30N 35°01' E 139°48'0 0.2
2017-Jul-20 11:58N 35°01' E 139°48'0 0.1
2017-Jul-20 11:30N 35°01' E 139°48'0 0.2
2017-Jul-20 11:00N 35°01' E 139°48'0 0.3
2017-Jul-20 10:29N 35°01' E 139°48'0 0.1
2017-Jul-20 10:00N 35°01' E 139°48'0 0.2
2017-Jul-20 09:30N 35°01' E 139°49'0 0.1
2017-Jul-20 09:00N 35°01' E 139°49'0 0.1
2017-Jul-20 08:30N 35°01' E 139°49'0 0.3
2017-Jul-20 08:00N 35°01' E 139°49'0 0.2
2017-Jul-20 07:30N 35°01' E 139°49'1 1.7
2017-Jul-20 07:00N 35°01' E 139°48'5 9.3
2017-Jul-20 06:30N 35°01' E 139°42'816.4
2017-Jul-20 06:00N 35°01' E 139°32'18 6.2
2017-Jul-20 03:10N 35°00' E 139°10'0 0.1
2017-Jul-19 23:13N 34°60' E 139°10'0 0.0
2017-Jul-19 22:59N 34°60' E 139°10'0 0.7
2017-Jul-19 22:19N 35°00' E 139°10'0 0.2
2017-Jul-19 21:31N 35°00' E 139°09'0 0.2
2017-Jul-19 21:28N 35°00' E 139°09'0 0.1
2017-Jul-19 21:00N 35°00' E 139°09'0 0.1
2017-Jul-19 20:28N 35°00' E 139°09'0 0.0
2017-Jul-19 19:55N 35°00' E 139°09'1 1.3
2017-Jul-19 19:30N 35°00' E 139°10'2 2.8
2017-Jul-19 18:46N 35°01' E 139°13'0 0.1
2017-Jul-19 17:24N 35°01' E 139°12'0 0.1
2017-Jul-19 16:56N 35°01' E 139°12'0 0.2
2017-Jul-19 16:29N 35°01' E 139°12'0 0.1
2017-Jul-19 15:48N 35°01' E 139°13'0 0.1
2017-Jul-19 15:24N 35°01' E 139°13'0 0.1
2017-Jul-19 14:58N 35°01' E 139°13'1 0.3
2017-Jul-19 12:07N 35°02' E 139°12'0 0.1
2017-Jul-19 11:39N 35°02' E 139°12'0 0.2
2017-Jul-19 11:14N 35°02' E 139°12'0 0.3
2017-Jul-19 10:55N 35°02' E 139°12'2 2.5
2017-Jul-19 09:57N 35°04' E 139°12'715.8
2017-Jul-19 09:30N 35°11' E 139°13'811.2
2017-Jul-19 08:46N 35°03' E 139°17'0 0.3
2017-Jul-19 07:40N 35°04' E 139°16'0 0.2
2017-Jul-19 07:26N 35°04' E 139°16'0 0.1
2017-Jul-19 06:51N 35°03' E 139°16'0 0.1
2017-Jul-19 06:02N 35°03' E 139°16'0 0.3
2017-Jul-19 05:51N 35°04' E 139°16'0 0.0
2017-Jul-19 05:00N 35°04' E 139°16'0 0.0
2017-Jul-19 03:39N 35°03' E 139°16'0 0.3
2017-Jul-19 03:29N 35°03' E 139°16'0 0.1
2017-Jul-19 00:55N 35°04' E 139°16'0 0.1
2017-Jul-18 22:33N 35°04' E 139°16'0 0.3
2017-Jul-18 22:22N 35°03' E 139°16'412.1
2017-Jul-18 22:00N 35°01' E 139°12'2 0.1
2017-Jul-18 05:42N 35°00' E 139°09'0 0.2
2017-Jul-18 05:00N 35°00' E 139°10'2210.2
2017-Jul-18 02:48N 35°05' E 139°36'516.6
2017-Jul-18 02:30N 35°06' E 139°42'815.2
2017-Jul-18 02:00N 35°13' E 139°46'612.8
2017-Jul-18 01:31N 35°19' E 139°43'713.8
2017-Jul-18 01:01N 35°26' E 139°45'714.8
2017-Jul-18 00:30N 35°31' E 139°51'5 9.4
2017-Jul-18 00:00N 35°35' E 139°47'4 6.2
2017-Jul-17 23:22N 35°39' E 139°47'0 0.0
2017-Jul-17 22:58N 35°39' E 139°47'0 0.0
2017-Jul-17 22:19N 35°39' E 139°47'0 0.0
2017-Jul-17 21:58N 35°39' E 139°47'0 0.0
2017-Jul-17 21:28N 35°39' E 139°47'0 0.0
2017-Jul-17 20:52N 35°39' E 139°47'0 0.0
2017-Jul-17 20:28N 35°39' E 139°47'0 0.0
2017-Jul-17 19:52N 35°39' E 139°47'0 0.0
2017-Jul-17 19:25N 35°39' E 139°47'0 0.0
2017-Jul-17 18:58N 35°39' E 139°47'0 0.0
2017-Jul-17 18:28N 35°39' E 139°47'0 0.0
2017-Jul-17 17:58N 35°39' E 139°47'0 0.0
2017-Jul-17 17:28N 35°39' E 139°47'0 0.0
2017-Jul-17 16:58N 35°39' E 139°47'0 0.0
2017-Jul-17 16:28N 35°39' E 139°47'0 0.0
2017-Jul-17 15:58N 35°39' E 139°47'0 0.0
2017-Jul-17 15:28N 35°39' E 139°47'0 0.0
2017-Jul-17 14:58N 35°39' E 139°47'0 0.0
2017-Jul-17 14:28N 35°39' E 139°47'0 0.0
2017-Jul-17 13:58N 35°39' E 139°47'0 0.0
2017-Jul-17 13:28N 35°39' E 139°47'0 0.0
2017-Jul-17 12:58N 35°39' E 139°47'0 0.0
2017-Jul-17 12:28N 35°39' E 139°47'0 0.0
2017-Jul-17 11:58N 35°39' E 139°47'0 0.0
2017-Jul-17 11:28N 35°39' E 139°47'0 0.0
2017-Jul-17 10:58N 35°39' E 139°47'0 0.0
2017-Jul-17 10:28N 35°39' E 139°47'0 0.0
2017-Jul-17 09:58N 35°39' E 139°47'0 0.0
2017-Jul-17 09:28N 35°39' E 139°47'0 0.0
2017-Jul-17 08:58N 35°39' E 139°47'0 0.0
2017-Jul-17 08:28N 35°39' E 139°47'0 0.0
2017-Jul-17 07:58N 35°39' E 139°47'0 0.0
2017-Jul-17 07:28N 35°39' E 139°47'0 0.0
2017-Jul-17 06:58N 35°39' E 139°47'0 0.0
2017-Jul-17 06:28N 35°39' E 139°47'0 0.0
2017-Jul-17 05:58N 35°39' E 139°47'0 0.0
2017-Jul-17 05:28N 35°39' E 139°47'0 0.0
2017-Jul-17 04:58N 35°39' E 139°47'0 0.0
2017-Jul-17 04:28N 35°39' E 139°47'0 0.0
2017-Jul-17 03:58N 35°39' E 139°47'0 0.0
2017-Jul-17 03:25N 35°39' E 139°47'0 0.0
2017-Jul-17 02:58N 35°39' E 139°47'0 0.0
2017-Jul-17 02:28N 35°39' E 139°47'0 0.0
2017-Jul-17 01:58N 35°39' E 139°47'0 0.0
2017-Jul-17 01:28N 35°39' E 139°47'0 0.0
2017-Jul-17 00:58N 35°39' E 139°47'0 0.0
2017-Jul-17 00:28N 35°39' E 139°47'0 0.0
2017-Jul-16 23:55N 35°39' E 139°47'0 0.0
2017-Jul-16 23:28N 35°39' E 139°47'0 0.0
2017-Jul-16 22:55N 35°39' E 139°47'0 0.0
2017-Jul-16 22:28N 35°39' E 139°47'0 0.3
2017-Jul-16 21:55N 35°39' E 139°46'0 0.3
2017-Jul-16 21:28N 35°39' E 139°47'0 0.0
2017-Jul-16 20:58N 35°39' E 139°47'0 0.0
2017-Jul-16 20:28N 35°39' E 139°47'0 0.0
2017-Jul-16 19:58N 35°39' E 139°47'0 0.0
2017-Jul-16 19:28N 35°39' E 139°47'0 0.0
2017-Jul-16 18:58N 35°39' E 139°47'0 0.0
2017-Jul-16 18:28N 35°39' E 139°47'0 0.0
2017-Jul-16 17:58N 35°39' E 139°47'0 0.0
2017-Jul-16 17:28N 35°39' E 139°47'0 0.0
2017-Jul-16 16:55N 35°39' E 139°47'0 0.0
2017-Jul-16 16:28N 35°39' E 139°47'0 0.0
2017-Jul-16 15:55N 35°39' E 139°47'0 0.0
2017-Jul-16 15:28N 35°39' E 139°47'0 0.0
2017-Jul-16 14:58N 35°39' E 139°47'0 0.0
2017-Jul-16 14:28N 35°39' E 139°47'0 0.0
2017-Jul-16 13:58N 35°39' E 139°47'0 0.0
2017-Jul-16 13:25N 35°39' E 139°47'0 0.0
2017-Jul-16 12:58N 35°39' E 139°47'0 0.0
2017-Jul-16 12:28N 35°39' E 139°47'0 0.0
2017-Jul-16 11:58N 35°39' E 139°47'0 0.0
2017-Jul-16 11:28N 35°39' E 139°47'0 0.0
2017-Jul-16 10:58N 35°39' E 139°47'0 0.0
2017-Jul-16 10:28N 35°39' E 139°47'0 0.0
2017-Jul-16 09:58N 35°39' E 139°47'0 0.0
2017-Jul-16 09:28N 35°39' E 139°47'0 0.0
2017-Jul-16 08:58N 35°39' E 139°47'0 0.0
2017-Jul-16 08:28N 35°39' E 139°47'0 0.0
2017-Jul-16 07:58N 35°39' E 139°47'0 0.0
2017-Jul-16 07:25N 35°39' E 139°47'0 0.0
2017-Jul-16 06:58N 35°39' E 139°47'0 0.0
2017-Jul-16 06:28N 35°39' E 139°47'0 0.0
2017-Jul-16 05:52N 35°39' E 139°47'0 0.0
2017-Jul-16 05:25N 35°39' E 139°47'0 0.0
2017-Jul-16 04:58N 35°39' E 139°47'0 0.0
2017-Jul-16 04:28N 35°39' E 139°47'0 0.0
2017-Jul-16 03:55N 35°39' E 139°47'0 0.0
2017-Jul-16 03:28N 35°39' E 139°47'0 0.0
2017-Jul-16 02:58N 35°39' E 139°47'0 0.0
2017-Jul-16 02:28N 35°39' E 139°47'0 0.0
2017-Jul-16 01:58N 35°39' E 139°47'0 0.0
2017-Jul-16 01:28N 35°39' E 139°47'0 0.0
2017-Jul-16 00:58N 35°39' E 139°47'0 0.0
2017-Jul-16 00:28N 35°39' E 139°47'0 0.0
2017-Jul-15 23:58N 35°39' E 139°47'0 0.0
2017-Jul-15 23:28N 35°39' E 139°47'0 0.0
2017-Jul-15 22:58N 35°39' E 139°47'0 0.0
2017-Jul-15 22:28N 35°39' E 139°47'0 0.0
2017-Jul-15 21:58N 35°39' E 139°47'0 0.0
2017-Jul-15 21:28N 35°39' E 139°47'0 0.0
2017-Jul-15 20:58N 35°39' E 139°47'0 0.0
2017-Jul-15 20:28N 35°39' E 139°47'0 0.0
2017-Jul-15 19:58N 35°39' E 139°47'0 0.0
2017-Jul-15 19:25N 35°39' E 139°47'0 0.0
2017-Jul-15 18:58N 35°39' E 139°47'0 0.0
2017-Jul-15 18:28N 35°39' E 139°47'0 0.0
2017-Jul-15 17:58N 35°39' E 139°47'0 0.0
2017-Jul-15 17:28N 35°39' E 139°47'0 0.0
2017-Jul-15 16:58N 35°39' E 139°47'0 0.0
2017-Jul-15 16:28N 35°39' E 139°47'0 0.0
2017-Jul-15 15:58N 35°39' E 139°47'0 0.0
2017-Jul-15 15:22N 35°39' E 139°47'0 0.0
2017-Jul-15 14:58N 35°39' E 139°47'0 0.0
2017-Jul-15 13:58N 35°39' E 139°47'0 0.0
2017-Jul-15 13:28N 35°39' E 139°47'0 0.0
2017-Jul-15 12:37N 35°39' E 139°47'0 0.0
2017-Jul-15 12:28N 35°39' E 139°47'0 0.0
2017-Jul-15 11:58N 35°39' E 139°47'0 0.0
2017-Jul-15 11:25N 35°39' E 139°47'0 0.0
2017-Jul-15 10:58N 35°39' E 139°47'0 0.0
2017-Jul-15 10:28N 35°39' E 139°47'0 0.0
2017-Jul-15 09:58N 35°39' E 139°47'0 0.0
2017-Jul-15 09:28N 35°39' E 139°47'0 0.0
2017-Jul-15 08:58N 35°39' E 139°47'0 0.0
2017-Jul-15 08:28N 35°39' E 139°47'0 0.0
2017-Jul-15 07:58N 35°39' E 139°47'0 0.0
2017-Jul-15 02:55N 35°39' E 139°47'0 0.0
2017-Jul-15 02:28N 35°39' E 139°47'0 0.1
2017-Jul-15 02:00N 35°39' E 139°47'2 3.3
2017-Jul-15 01:30N 35°37' E 139°46'510.4
2017-Jul-15 01:00N 35°33' E 139°50'2 4.9
2017-Jul-15 00:30N 35°32' E 139°53'0 0.4
2017-Jul-15 00:00N 35°32' E 139°53'1 2.9
2017-Jul-14 23:29N 35°31' E 139°52'5 9.4
2017-Jul-14 23:00N 35°27' E 139°49'611.5
2017-Jul-14 22:30N 35°22' E 139°45'611.1
2017-Jul-14 22:00N 35°17' E 139°46'612.9
2017-Jul-14 21:30N 35°10' E 139°46'714.0
2017-Jul-14 21:00N 35°03' E 139°45'612.9
2017-Jul-14 20:30N 34°57' E 139°43'  

Dump ship's entire track history